KMSS/MSS METAR and TAF weather

Enter ICAO airport designator
Station Type Date Time Source
KMSS METAR 2019/06/26 17:53 UTC NOAA

KMSS 261753Z AUTO 23008KT 10SM FEW049 SCT080 28/17 A2992 RMK AO2 SLP131 T02830172 10289 20211 56021


Station Type Date Time Source
KMSS Decoded METAR 2019/06/26 17:53 UTC NOAA

MASSENA INTERNATIONAL -RICHARDS FLD, NY, United States (KMSS) 44-56N 074-51W 66M
Jun 26, 2019 - 01:53 PM EDT / 2019.06.26 1753 UTC
Wind: from the SW (230 degrees) at 9 MPH (8 KT):0
Visibility: 10 mile(s):0
Sky conditions: partly cloudy
Temperature: 82.9 F (28.3 C)
Dew Point: 63.0 F (17.2 C)
Relative Humidity: 50%
Pressure (altimeter): 29.92 in. Hg (1013 hPa)
Pressure tendency: 0.06 inches (2.1 hPa) lower than three hours ago
ob: KMSS 261753Z AUTO 23008KT 10SM FEW049 SCT080 28/17 A2992 RMK AO2 SLP131 T02830172 10289 20211 56021
cycle: 18

Station Type Date Time Source
KMSS TAF 2019/06/26 18:28 UTC NOAA

TAF KMSS 261726Z 2618/2718 20007KT P6SM SCT080
FM261900 20009KT P6SM VCSH SCT090
TEMPO 2619/2621 4SM TS BKN090CB
FM262100 21010KT P6SM VCSH SCT045
FM270100 22005KT P6SM SCT080

Example: see airport list